Time;durP1;ratioP1;P1;durP2;ratioP2;P2;SDS_P1;SDS_P2;PMS_P1;PMS_P2;Temp;Humidity;BMP_temperature;BMP_pressure;BME280_temperature;BME280_humidity;BME280_pressure;Samples;Min_cycle;Max_cycle;Signal;HPM_P1;HPM_P2
2024/01/27 00:01:42;;;;;;;11.95;11.25;;;5.80;1.00;;;;;;5002500;28;20243;-39
2024/01/27 00:04:07;;;;;;;12.07;11.13;;;5.80;1.00;;;;;;5020994;28;20186;-39
2024/01/27 00:06:33;;;;;;;12.00;11.30;;;5.80;1.00;;;;;;5020479;28;20656;-39
2024/01/27 00:08:59;;;;;;;11.10;10.50;;;5.80;10.50;;;;;;5020600;28;20182;-38
2024/01/27 00:11:25;;;;;;;11.82;11.10;;;5.80;94.80;;;;;;5020731;28;20193;-41
2024/01/27 00:13:50;;;;;;;11.03;10.53;;;5.80;99.90;;;;;;5020012;28;20575;-39
2024/01/27 00:16:16;;;;;;;12.17;11.30;;;5.70;99.90;;;;;;5018407;28;20197;-39
2024/01/27 00:18:41;;;;;;;11.53;10.73;;;5.70;50.70;;;;;;5019878;28;20719;-39
2024/01/27 00:21:07;;;;;;;12.40;11.60;;;5.70;1.00;;;;;;5013552;28;20178;-39
2024/01/27 00:23:34;;;;;;;11.53;10.73;;;5.60;1.00;;;;;;5008090;28;20190;-40
2024/01/27 00:26:03;;;;;;;11.10;10.60;;;5.60;99.90;;;;;;5018288;28;20228;-40
2024/01/27 00:28:29;;;;;;;11.85;11.10;;;5.60;99.90;;;;;;5011479;28;20664;-39
2024/01/27 00:30:54;;;;;;;11.60;10.80;;;5.60;99.90;;;;;;5020081;28;20193;-43
2024/01/27 00:33:22;;;;;;;12.00;11.50;;;5.60;99.90;;;;;;5012457;28;20179;-40
2024/01/27 00:35:48;;;;;;;12.43;11.60;;;5.70;99.90;;;;;;5016658;28;20286;-40
2024/01/27 00:38:13;;;;;;;11.90;11.30;;;5.70;99.90;;;;;;5009766;28;20193;-40
2024/01/27 00:40:39;;;;;;;11.80;11.30;;;5.70;99.90;;;;;;5016996;28;20194;-40
2024/01/27 00:43:05;;;;;;;12.60;11.70;;;5.70;99.90;;;;;;5016368;28;20183;-41
2024/01/27 00:45:31;;;;;;;12.00;11.30;;;5.70;99.90;;;;;;5016944;28;21269;-40
2024/01/27 00:47:57;;;;;;;12.40;11.50;;;5.70;99.90;;;;;;5015552;28;20484;-40
2024/01/27 00:50:23;;;;;;;11.97;11.27;;;5.70;99.90;;;;;;5016230;28;20665;-40
2024/01/27 00:52:49;;;;;;;11.70;11.10;;;5.60;1.00;;;;;;4997742;28;20179;-39
2024/01/27 00:55:14;;;;;;;11.67;11.07;;;5.50;1.00;;;;;;5021793;28;20473;-41
2024/01/27 00:57:40;;;;;;;12.50;11.40;;;5.50;1.00;;;;;;5018103;28;20190;-39
2024/01/27 01:00:07;;;;;;;11.93;11.13;;;5.50;1.00;;;;;;5022918;28;20183;-39
2024/01/27 01:02:33;;;;;;;11.80;11.20;;;5.50;1.00;;;;;;5021680;28;20189;-41
2024/01/27 01:04:58;;;;;;;11.67;11.00;;;5.50;1.00;;;;;;5023151;28;20187;-40
2024/01/27 01:07:24;;;;;;;11.50;10.70;;;5.50;1.00;;;;;;5020547;28;21142;-41
2024/01/27 01:09:49;;;;;;;12.00;11.10;;;5.50;1.00;;;;;;5008358;28;20194;-40
2024/01/27 01:12:15;;;;;;;12.10;11.33;;;5.50;99.90;;;;;;5014644;28;20539;-54
2024/01/27 01:14:41;;;;;;;11.73;11.23;;;5.50;99.90;;;;;;5009561;28;20238;-49
2024/01/27 01:17:07;;;;;;;11.60;11.10;;;5.50;99.90;;;;;;5022380;28;20645;-52
2024/01/27 01:19:33;;;;;;;11.70;11.10;;;5.60;99.90;;;;;;5016052;28;20222;-40
2024/01/27 01:21:58;;;;;;;11.83;11.13;;;5.50;99.90;;;;;;5023347;28;20198;-41
2024/01/27 01:24:24;;;;;;;12.10;11.40;;;5.50;99.90;;;;;;5021912;28;20203;-40
2024/01/27 01:26:49;;;;;;;11.40;10.80;;;5.60;99.90;;;;;;5023155;28;20272;-39
2024/01/27 01:29:15;;;;;;;11.93;11.03;;;5.50;99.90;;;;;;5022389;28;20633;-42
2024/01/27 01:31:42;;;;;;;11.20;10.68;;;5.50;99.90;;;;;;5022857;28;20780;-39
2024/01/27 01:34:08;;;;;;;11.93;11.13;;;5.40;99.90;;;;;;5022957;28;20600;-40
2024/01/27 01:36:34;;;;;;;11.40;10.70;;;5.40;1.00;;;;;;5023075;28;20185;-40
2024/01/27 01:38:59;;;;;;;11.03;10.40;;;5.40;1.00;;;;;;5022948;28;20179;-42
2024/01/27 01:41:25;;;;;;;11.87;11.23;;;5.40;1.00;;;;;;5022795;28;20237;-40
2024/01/27 01:43:50;;;;;;;12.50;11.70;;;5.30;1.00;;;;;;5021562;28;20518;-40
2024/01/27 01:46:16;;;;;;;12.13;11.47;;;5.30;1.00;;;;;;5022224;28;20202;-40
2024/01/27 01:48:42;;;;;;;11.93;11.30;;;5.30;1.00;;;;;;5022623;28;20229;-40
2024/01/27 01:51:09;;;;;;;11.90;11.20;;;5.30;1.00;;;;;;5022537;28;20273;-39
2024/01/27 01:53:34;;;;;;;12.52;11.57;;;5.30;1.00;;;;;;5022206;28;20192;-40
2024/01/27 01:56:02;;;;;;;12.27;11.57;;;5.30;1.00;;;;;;5022486;28;20187;-39
2024/01/27 01:58:33;;;;;;;11.98;11.40;;;5.20;1.00;;;;;;5022775;28;20197;-42
2024/01/27 02:01:00;;;;;;;11.75;10.95;;;5.20;1.00;;;;;;5022387;28;20221;-54
2024/01/27 02:03:25;;;;;;;11.50;10.65;;;5.20;1.00;;;;;;5022452;28;20850;-52
2024/01/27 02:05:51;;;;;;;12.13;11.33;;;5.20;99.90;;;;;;5022257;28;20264;-56
2024/01/27 02:08:17;;;;;;;12.53;11.50;;;5.20;99.90;;;;;;5022206;28;20641;-55
2024/01/27 02:10:42;;;;;;;11.87;11.30;;;5.20;99.90;;;;;;5022176;28;20178;-48
2024/01/27 02:13:24;;;;;;;11.70;11.10;;;5.10;82.60;;;;;;5021837;28;20691;-56
2024/01/27 02:15:50;;;;;;;11.82;11.20;;;5.20;99.90;;;;;;5003409;28;20213;-55
2024/01/27 02:18:16;;;;;;;11.68;11.05;;;5.20;99.90;;;;;;5021086;28;20182;-55
2024/01/27 02:20:43;;;;;;;11.73;11.00;;;5.20;74.10;;;;;;5012865;28;20758;-52
2024/01/27 02:23:09;;;;;;;11.88;11.27;;;5.30;1.00;;;;;;4990714;28;20430;-56
2024/01/27 02:25:35;;;;;;;11.40;10.70;;;5.30;1.00;;;;;;5014511;28;20183;-49
2024/01/27 02:28:04;;;;;;;11.73;10.93;;;5.30;1.00;;;;;;5008076;28;20436;-51
2024/01/27 02:30:30;;;;;;;11.27;10.73;;;5.20;46.90;;;;;;5018595;28;20214;-50
2024/01/27 02:32:57;;;;;;;11.90;11.20;;;5.20;1.00;;;;;;5003927;28;20264;-57
2024/01/27 02:35:22;;;;;;;12.18;11.25;;;5.20;1.00;;;;;;5009983;28;20207;-53
2024/01/27 02:37:48;;;;;;;11.73;11.13;;;5.20;1.00;;;;;;5010355;28;20232;-55
2024/01/27 02:40:14;;;;;;;13.03;11.10;;;5.20;1.00;;;;;;5011887;28;20183;-54
2024/01/27 02:42:42;;;;;;;11.55;10.90;;;5.20;1.00;;;;;;5010124;28;20206;-53
2024/01/27 02:45:08;;;;;;;12.45;11.60;;;5.20;1.00;;;;;;5005255;28;20180;-56
2024/01/27 02:47:33;;;;;;;12.07;11.48;;;5.10;1.00;;;;;;5011497;28;20233;-55
2024/01/27 02:49:59;;;;;;;11.50;10.90;;;5.10;1.00;;;;;;5019665;28;20645;-55
2024/01/27 02:52:25;;;;;;;11.90;11.20;;;5.10;1.00;;;;;;5009192;28;20211;-53
2024/01/27 02:54:51;;;;;;;11.23;10.53;;;5.20;1.00;;;;;;5014813;28;20323;-57
2024/01/27 02:57:17;;;;;;;11.60;10.90;;;5.10;1.00;;;;;;5009334;28;20167;-56
2024/01/27 02:59:48;;;;;;;11.43;10.67;;;5.10;1.00;;;;;;5004979;28;20417;-51
2024/01/27 03:02:14;;;;;;;11.55;10.85;;;5.10;1.00;;;;;;5003362;28;20936;-57
2024/01/27 03:04:39;;;;;;;11.67;11.07;;;5.00;1.00;;;;;;5012626;28;20236;-57
2024/01/27 03:07:05;;;;;;;11.90;11.13;;;5.00;1.00;;;;;;5015366;28;21314;-53
2024/01/27 03:09:32;;;;;;;12.37;11.57;;;4.90;1.00;;;;;;5017103;28;20195;-55
2024/01/27 03:11:58;;;;;;;11.93;11.15;;;4.90;1.00;;;;;;5009877;28;20178;-56
2024/01/27 03:14:24;;;;;;;12.10;11.20;;;5.00;1.00;;;;;;5011420;28;20215;-54
2024/01/27 03:16:50;;;;;;;12.07;11.35;;;5.10;1.00;;;;;;5005575;28;20293;-51
2024/01/27 03:19:15;;;;;;;11.97;11.10;;;5.00;1.00;;;;;;5014736;28;20271;-50
2024/01/27 03:21:41;;;;;;;12.23;11.33;;;5.10;99.90;;;;;;5008900;28;20425;-57
2024/01/27 03:24:07;;;;;;;11.90;11.10;;;5.10;1.00;;;;;;5012998;28;20631;-57
2024/01/27 03:26:33;;;;;;;12.00;11.33;;;5.20;99.90;;;;;;5010950;28;20186;-54
2024/01/27 03:28:58;;;;;;;12.27;11.53;;;5.20;99.90;;;;;;5009637;28;20440;-50
2024/01/27 03:31:30;;;;;;;13.17;12.03;;;5.20;99.90;;;;;;5011430;28;20669;-48
2024/01/27 03:33:56;;;;;;;12.18;11.30;;;5.20;99.90;;;;;;5007628;28;20214;-54
2024/01/27 03:36:22;;;;;;;11.77;11.00;;;5.10;99.90;;;;;;5008443;28;20190;-54
2024/01/27 03:38:48;;;;;;;11.60;10.80;;;5.10;99.90;;;;;;5014744;28;20182;-51
2024/01/27 03:41:13;;;;;;;12.40;11.60;;;5.20;99.90;;;;;;5011935;28;20184;-56
2024/01/27 03:43:39;;;;;;;12.47;11.40;;;5.20;69.90;;;;;;5011638;28;20211;-52
2024/01/27 03:46:04;;;;;;;11.53;11.03;;;5.20;1.00;;;;;;5013385;28;20190;-55
2024/01/27 03:48:30;;;;;;;12.67;11.57;;;5.20;1.00;;;;;;5020138;28;20261;-55
2024/01/27 03:50:56;;;;;;;11.83;11.23;;;5.20;1.00;;;;;;5008533;28;20175;-49
2024/01/27 03:53:22;;;;;;;11.80;11.10;;;5.10;1.00;;;;;;5007601;28;20218;-56
2024/01/27 03:55:47;;;;;;;11.90;11.20;;;5.10;1.00;;;;;;5004855;28;20564;-53
2024/01/27 03:58:13;;;;;;;12.03;11.17;;;5.10;1.00;;;;;;5002348;28;20179;-56
2024/01/27 04:00:39;;;;;;;10.57;10.10;;;5.10;1.00;;;;;;5001346;28;20190;-48
2024/01/27 04:03:04;;;;;;;13.10;11.77;;;5.10;1.00;;;;;;5001165;28;20233;-40
2024/01/27 04:05:30;;;;;;;12.43;11.60;;;5.10;1.00;;;;;;5002458;28;20195;-39
2024/01/27 04:07:56;;;;;;;12.33;11.63;;;5.00;1.00;;;;;;5009375;28;20183;-43
2024/01/27 04:10:23;;;;;;;12.23;11.53;;;5.00;1.00;;;;;;5011365;28;20429;-39
2024/01/27 04:12:49;;;;;;;12.25;11.55;;;4.90;1.00;;;;;;5007182;28;20265;-42
2024/01/27 04:15:15;;;;;;;12.50;11.80;;;4.90;1.00;;;;;;5004144;28;20217;-40
2024/01/27 04:17:41;;;;;;;12.20;11.30;;;5.00;1.00;;;;;;5020846;28;20175;-39
2024/01/27 04:20:08;;;;;;;12.15;11.40;;;5.00;1.00;;;;;;5019833;28;20303;-39
2024/01/27 04:22:34;;;;;;;12.15;11.15;;;5.00;1.00;;;;;;5024182;28;20225;-39
2024/01/27 04:25:00;;;;;;;12.07;11.15;;;5.00;1.00;;;;;;5023870;28;20194;-40
2024/01/27 04:27:29;;;;;;;11.93;11.13;;;5.10;1.00;;;;;;5024082;28;20186;-50
2024/01/27 04:29:56;;;;;;;11.95;11.05;;;5.10;1.00;;;;;;5023986;28;20400;-51
2024/01/27 04:32:22;;;;;;;12.00;11.05;;;5.00;1.00;;;;;;5023829;28;20186;-54
2024/01/27 04:34:48;;;;;;;11.13;10.63;;;5.10;1.00;;;;;;5023836;28;20700;-55
2024/01/27 04:37:13;;;;;;;12.00;11.30;;;5.10;1.00;;;;;;5023349;28;21119;-57
2024/01/27 04:39:39;;;;;;;12.33;11.23;;;5.00;1.00;;;;;;5024127;28;20182;-57
2024/01/27 04:42:06;;;;;;;13.27;11.93;;;5.00;1.00;;;;;;5024451;28;20195;-56
2024/01/27 04:44:32;;;;;;;12.77;11.73;;;5.00;1.00;;;;;;5023724;28;20190;-53
2024/01/27 04:46:57;;;;;;;11.80;11.10;;;5.10;1.00;;;;;;5023981;28;20671;-56
2024/01/27 04:49:23;;;;;;;12.63;11.50;;;5.00;1.00;;;;;;5023696;28;20421;-50
2024/01/27 04:51:49;;;;;;;11.77;11.03;;;5.00;1.00;;;;;;5023582;28;20645;-57
2024/01/27 04:54:14;;;;;;;12.63;11.80;;;5.00;1.00;;;;;;5023582;28;20206;-56
2024/01/27 04:56:40;;;;;;;12.87;12.07;;;4.90;1.00;;;;;;5023475;28;20206;-54
2024/01/27 04:59:05;;;;;;;12.20;11.50;;;4.90;1.00;;;;;;5023228;28;20185;-54
2024/01/27 05:01:32;;;;;;;11.80;11.13;;;4.90;1.00;;;;;;5023503;28;20178;-51
2024/01/27 05:03:57;;;;;;;12.27;11.25;;;4.80;1.00;;;;;;5023403;28;20194;-55
2024/01/27 05:06:23;;;;;;;11.23;10.63;;;4.70;1.00;;;;;;5023338;28;20182;-55
2024/01/27 05:08:49;;;;;;;11.77;10.73;;;4.80;1.00;;;;;;5023524;28;20877;-54
2024/01/27 05:11:17;;;;;;;12.90;11.63;;;4.70;1.00;;;;;;5023393;28;20652;-56
2024/01/27 05:13:43;;;;;;;11.85;11.20;;;4.70;1.00;;;;;;5023392;28;20186;-40
2024/01/27 05:16:09;;;;;;;12.40;11.60;;;4.70;1.00;;;;;;5022718;28;20179;-39
2024/01/27 05:18:34;;;;;;;11.90;10.80;;;4.70;1.00;;;;;;5023103;28;20670;-39
2024/01/27 05:21:00;;;;;;;12.17;11.50;;;4.70;1.00;;;;;;5022875;28;20194;-42
2024/01/27 05:23:26;;;;;;;12.10;11.30;;;4.70;1.00;;;;;;5023325;28;20240;-40
2024/01/27 05:25:51;;;;;;;12.37;11.40;;;4.80;1.00;;;;;;5023235;28;20269;-40
2024/01/27 05:28:17;;;;;;;12.20;11.20;;;4.80;1.00;;;;;;5023070;28;20195;-41
2024/01/27 05:30:43;;;;;;;12.53;11.43;;;4.90;1.00;;;;;;5022568;28;20198;-39
2024/01/27 05:33:09;;;;;;;11.50;10.85;;;4.90;1.00;;;;;;5023432;28;20658;-41
2024/01/27 05:35:34;;;;;;;11.60;10.80;;;4.90;1.00;;;;;;5022902;28;20206;-39
2024/01/27 05:38:00;;;;;;;11.50;10.50;;;4.90;1.00;;;;;;5005642;28;20551;-40
2024/01/27 05:40:25;;;;;;;12.27;11.53;;;4.90;1.00;;;;;;5023046;28;20198;-42
2024/01/27 05:42:51;;;;;;;12.40;11.43;;;4.90;1.00;;;;;;5023214;28;20931;-39
2024/01/27 05:45:17;;;;;;;11.30;10.70;;;4.90;1.00;;;;;;5022957;28;20236;-40
2024/01/27 05:47:43;;;;;;;12.00;11.20;;;5.00;1.00;;;;;;5022936;28;20190;-54
2024/01/27 05:50:09;;;;;;;11.60;11.00;;;5.00;1.00;;;;;;5022488;28;20192;-56
2024/01/27 05:52:35;;;;;;;11.63;10.93;;;5.00;1.00;;;;;;5022529;28;20190;-52
2024/01/27 05:55:02;;;;;;;11.93;10.97;;;5.00;1.00;;;;;;5022756;28;21000;-55
2024/01/27 05:57:28;;;;;;;12.65;11.55;;;5.00;1.00;;;;;;5022058;28;20491;-54
2024/01/27 05:59:54;;;;;;;11.60;10.80;;;5.00;1.00;;;;;;5021801;28;20699;-56
2024/01/27 06:02:19;;;;;;;11.90;11.10;;;5.00;1.00;;;;;;5021026;28;20182;-55
2024/01/27 06:04:46;;;;;;;12.80;11.90;;;5.00;1.00;;;;;;5020607;28;20196;-55
2024/01/27 06:07:11;;;;;;;12.18;11.18;;;5.00;1.00;;;;;;5022326;28;20265;-57
2024/01/27 06:09:37;;;;;;;11.83;10.97;;;5.00;1.00;;;;;;5022034;28;20187;-56
2024/01/27 06:12:03;;;;;;;11.90;11.07;;;5.00;1.00;;;;;;5004178;28;20281;-55
2024/01/27 06:14:29;;;;;;;11.88;11.25;;;5.00;1.00;;;;;;5022178;28;20572;-56
2024/01/27 06:16:54;;;;;;;12.67;11.70;;;5.00;1.00;;;;;;5021270;28;20183;-55
2024/01/27 06:19:20;;;;;;;11.63;10.90;;;5.10;1.00;;;;;;5021528;28;20234;-56
2024/01/27 06:21:45;;;;;;;11.57;10.67;;;5.00;1.00;;;;;;5021932;28;20754;-55
2024/01/27 06:24:11;;;;;;;12.20;11.40;;;5.00;1.00;;;;;;5022323;28;20201;-57
2024/01/27 06:26:37;;;;;;;11.93;11.20;;;5.10;1.00;;;;;;5022015;28;20190;-39
2024/01/27 06:29:04;;;;;;;12.90;12.20;;;5.10;1.00;;;;;;5003860;28;20194;-40
2024/01/27 06:31:29;;;;;;;12.68;11.80;;;5.10;1.00;;;;;;5019351;28;20641;-39
2024/01/27 06:33:55;;;;;;;11.50;10.80;;;5.10;1.00;;;;;;5021262;28;20190;-39
2024/01/27 06:36:24;;;;;;;12.30;11.50;;;5.10;1.00;;;;;;5003856;28;20217;-39
2024/01/27 06:38:50;;;;;;;11.63;10.98;;;5.10;1.00;;;;;;5020996;28;20205;-39
2024/01/27 06:41:16;;;;;;;12.65;11.75;;;5.10;1.00;;;;;;5021461;28;20186;-39
2024/01/27 06:43:42;;;;;;;12.13;11.43;;;5.10;1.00;;;;;;5021286;28;20224;-39
2024/01/27 06:46:07;;;;;;;12.97;12.20;;;5.10;1.00;;;;;;5021074;28;20186;-39
2024/01/27 06:48:33;;;;;;;13.13;12.03;;;5.20;1.00;;;;;;5020426;28;20660;-39
2024/01/27 06:50:59;;;;;;;12.93;11.87;;;5.10;1.00;;;;;;5019473;28;20640;-39
2024/01/27 06:53:24;;;;;;;12.87;11.60;;;5.10;1.00;;;;;;5020875;28;20201;-38
2024/01/27 06:55:50;;;;;;;12.50;11.50;;;5.10;1.00;;;;;;5020722;28;20613;-51
2024/01/27 06:58:15;;;;;;;12.33;11.33;;;5.10;1.00;;;;;;5002843;28;20301;-53
2024/01/27 07:00:41;;;;;;;12.43;11.60;;;5.00;1.00;;;;;;5021533;28;20190;-54
2024/01/27 07:03:07;;;;;;;11.87;11.20;;;5.10;1.00;;;;;;5020912;28;20260;-58
2024/01/27 07:05:38;;;;;;;12.40;11.55;;;5.10;1.00;;;;;;5020427;28;20247;-56
2024/01/27 07:08:06;;;;;;;12.13;11.30;;;5.10;1.00;;;;;;5021341;28;20261;-57
2024/01/27 07:10:31;;;;;;;12.25;11.45;;;5.10;1.00;;;;;;5020626;28;21187;-56
2024/01/27 07:12:57;;;;;;;12.40;11.70;;;5.10;1.00;;;;;;5020852;28;20183;-52
2024/01/27 07:15:23;;;;;;;12.00;11.10;;;5.20;1.00;;;;;;5001583;28;20680;-52
2024/01/27 07:17:49;;;;;;;11.85;11.05;;;5.20;1.00;;;;;;5019523;28;20187;-53
2024/01/27 07:20:14;;;;;;;12.00;11.20;;;5.20;1.00;;;;;;5009048;28;20249;-52
2024/01/27 07:22:41;;;;;;;11.80;11.10;;;5.20;1.00;;;;;;5008577;28;20546;-51
2024/01/27 07:25:10;;;;;;;12.20;11.23;;;5.20;1.00;;;;;;5000826;28;20269;-52
2024/01/27 07:27:35;;;;;;;12.80;11.73;;;5.30;1.00;;;;;;5006395;28;20705;-55
2024/01/27 07:30:02;;;;;;;11.23;10.53;;;5.40;1.00;;;;;;5006583;28;20193;-55
2024/01/27 07:32:28;;;;;;;11.55;10.73;;;5.30;1.00;;;;;;5004065;28;20434;-55
2024/01/27 07:34:53;;;;;;;10.83;10.20;;;5.30;1.00;;;;;;5005031;28;20205;-56
2024/01/27 07:37:20;;;;;;;11.40;10.63;;;5.30;1.00;;;;;;5013205;28;20965;-52
2024/01/27 07:39:46;;;;;;;11.82;11.20;;;5.40;1.00;;;;;;5008678;28;20179;-50
2024/01/27 07:42:12;;;;;;;12.00;11.10;;;5.40;1.00;;;;;;4992179;28;20999;-54
2024/01/27 07:44:38;;;;;;;12.77;11.87;;;5.40;1.00;;;;;;5003809;28;20448;-42
2024/01/27 07:47:03;;;;;;;11.93;10.90;;;5.40;1.00;;;;;;5006199;28;20887;-39
2024/01/27 07:49:29;;;;;;;10.53;9.93;;;5.40;1.00;;;;;;5012402;28;20743;-40
2024/01/27 07:51:55;;;;;;;11.57;10.63;;;5.40;1.00;;;;;;5008159;28;20190;-40
2024/01/27 07:54:20;;;;;;;12.07;11.17;;;5.40;1.00;;;;;;5008254;28;20257;-56
2024/01/27 07:56:47;;;;;;;12.30;11.30;;;5.50;1.00;;;;;;5004107;28;20640;-52
2024/01/27 07:59:14;;;;;;;12.00;11.18;;;5.50;1.00;;;;;;5007009;28;21043;-55
2024/01/27 08:01:40;;;;;;;11.32;10.32;;;5.50;1.00;;;;;;5011520;28;20177;-54
2024/01/27 08:04:06;;;;;;;11.25;10.55;;;5.60;1.00;;;;;;5005180;28;20246;-56
2024/01/27 08:06:32;;;;;;;11.57;10.77;;;5.60;1.00;;;;;;5003501;28;20187;-57
2024/01/27 08:08:57;;;;;;;12.50;11.27;;;5.60;1.00;;;;;;5008558;28;20812;-56
2024/01/27 08:11:24;;;;;;;11.13;10.53;;;5.60;1.00;;;;;;5005205;28;20944;-54
2024/01/27 08:13:50;;;;;;;12.18;11.20;;;5.70;1.00;;;;;;5001778;28;20266;-56
2024/01/27 08:16:16;;;;;;;11.93;11.13;;;5.70;1.00;;;;;;5005626;28;20183;-54
2024/01/27 08:18:44;;;;;;;11.17;10.57;;;5.70;1.00;;;;;;5004149;28;20697;-55
2024/01/27 08:21:10;;;;;;;12.98;12.18;;;5.70;1.00;;;;;;5017105;28;20499;-54
2024/01/27 08:23:36;;;;;;;11.60;10.80;;;5.80;1.00;;;;;;5017512;28;20205;-55
2024/01/27 08:26:01;;;;;;;11.50;10.60;;;5.70;1.00;;;;;;5018802;28;20923;-43
2024/01/27 08:28:27;;;;;;;11.10;10.40;;;5.80;1.00;;;;;;5019326;28;20186;-43
2024/01/27 08:30:52;;;;;;;11.30;10.60;;;5.80;1.00;;;;;;5019665;28;20622;-40
2024/01/27 08:33:18;;;;;;;11.30;10.40;;;5.80;1.00;;;;;;5019495;28;20186;-39
2024/01/27 08:35:46;;;;;;;11.33;10.63;;;5.80;1.00;;;;;;5020104;28;20230;-38
2024/01/27 08:38:12;;;;;;;11.75;10.85;;;5.70;1.00;;;;;;5020127;28;20225;-40
2024/01/27 08:40:38;;;;;;;11.33;10.47;;;5.80;1.00;;;;;;5018840;28;20265;-44
2024/01/27 08:43:03;;;;;;;10.63;9.83;;;5.80;1.00;;;;;;5021130;28;20195;-40
2024/01/27 08:45:29;;;;;;;10.20;9.40;;;5.80;1.00;;;;;;5020771;28;20249;-40
2024/01/27 08:47:55;;;;;;;11.80;10.87;;;5.80;1.00;;;;;;5019470;28;21063;-42
2024/01/27 08:50:21;;;;;;;11.23;10.40;;;5.80;1.00;;;;;;5018871;28;20201;-42
2024/01/27 08:52:47;;;;;;;11.32;10.32;;;5.80;1.00;;;;;;5020633;28;20190;-40
2024/01/27 08:55:13;;;;;;;10.00;9.50;;;5.80;1.00;;;;;;5023273;28;20690;-41
2024/01/27 08:57:38;;;;;;;11.83;10.77;;;5.80;1.00;;;;;;5021567;28;20435;-40
2024/01/27 09:00:04;;;;;;;12.07;10.90;;;5.80;1.00;;;;;;5023384;28;20552;-54
2024/01/27 09:02:30;;;;;;;12.15;11.15;;;5.90;1.00;;;;;;5021721;28;20178;-57
2024/01/27 09:04:56;;;;;;;11.53;10.53;;;5.90;1.00;;;;;;5023915;28;20193;-52
2024/01/27 09:07:23;;;;;;;10.97;10.17;;;5.90;1.00;;;;;;5004841;28;20193;-55
2024/01/27 09:09:49;;;;;;;11.57;10.43;;;6.00;1.00;;;;;;5022024;28;20854;-52
2024/01/27 09:12:15;;;;;;;11.40;10.80;;;6.00;1.00;;;;;;5022990;28;20232;-54
2024/01/27 09:14:40;;;;;;;11.33;10.57;;;6.00;1.00;;;;;;5018293;28;20202;-55
2024/01/27 09:17:06;;;;;;;11.60;10.80;;;6.00;1.00;;;;;;5022952;28;20214;-54
2024/01/27 09:19:32;;;;;;;12.30;11.50;;;6.00;1.00;;;;;;5014165;28;20300;-56
2024/01/27 09:21:57;;;;;;;11.90;10.95;;;6.10;1.00;;;;;;5006517;28;20294;-55
2024/01/27 09:24:23;;;;;;;14.07;11.07;;;6.20;1.00;;;;;;5015612;28;20547;-54
2024/01/27 09:27:10;;;;;;;11.07;10.33;;;6.20;1.00;;;;;;5008080;28;20190;-56
2024/01/27 09:29:45;;;;;;;11.63;10.75;;;6.20;1.00;;;;;;5006619;28;20262;-54
2024/01/27 09:32:21;;;;;;;11.30;10.43;;;6.20;1.00;;;;;;4994362;28;20198;-56
2024/01/27 09:34:47;;;;;;;10.20;9.63;;;6.30;1.00;;;;;;5006984;28;20472;-39
2024/01/27 09:37:12;;;;;;;9.80;8.27;;;6.30;1.00;;;;;;5009179;28;20548;-39
2024/01/27 09:39:38;;;;;;;9.37;8.67;;;6.30;1.00;;;;;;4988101;28;20219;-40
2024/01/27 09:42:06;;;;;;;11.53;10.43;;;6.30;1.00;;;;;;5003681;28;20453;-42
2024/01/27 09:44:34;;;;;;;10.87;9.97;;;6.40;1.00;;;;;;5006878;28;20217;-39
2024/01/27 09:47:00;;;;;;;10.98;10.10;;;6.50;1.00;;;;;;5010015;28;20459;-57
2024/01/27 09:49:27;;;;;;;12.13;11.13;;;6.60;1.00;;;;;;5008627;28;20270;-55
2024/01/27 09:51:52;;;;;;;10.43;9.63;;;6.60;1.00;;;;;;5008079;28;20187;-55
2024/01/27 09:54:19;;;;;;;12.10;11.17;;;6.60;1.00;;;;;;5005449;28;20466;-56
2024/01/27 09:56:46;;;;;;;9.70;9.00;;;6.70;99.90;;;;;;5005374;28;20175;-55
2024/01/27 09:59:14;;;;;;;10.20;9.53;;;6.70;99.90;;;;;;5006460;28;20430;-56
2024/01/27 10:01:39;;;;;;;10.60;9.80;;;6.70;99.90;;;;;;5004555;28;20495;-55
2024/01/27 10:04:08;;;;;;;9.73;9.03;;;6.70;99.90;;;;;;5004239;28;20436;-54
2024/01/27 10:06:33;;;;;;;11.33;10.53;;;6.70;99.90;;;;;;5004278;28;20183;-54
2024/01/27 10:08:59;;;;;;;10.80;9.90;;;6.70;99.90;;;;;;5006339;28;20844;-53
2024/01/27 10:11:26;;;;;;;11.20;10.10;;;6.80;99.90;;;;;;5003424;28;20198;-55
2024/01/27 10:13:56;;;;;;;13.47;12.40;;;6.80;99.90;;;;;;5006489;28;20190;-52
2024/01/27 10:16:21;;;;;;;11.13;10.33;;;6.70;99.90;;;;;;4999144;28;20523;-56
2024/01/27 10:18:47;;;;;;;12.13;11.10;;;6.70;99.90;;;;;;5001563;28;20568;-55
2024/01/27 10:21:18;;;;;;;14.40;11.20;;;6.80;99.90;;;;;;5024985;28;20181;-52
2024/01/27 10:23:43;;;;;;;11.37;10.43;;;6.80;99.90;;;;;;5025543;28;20179;-51
2024/01/27 10:26:10;;;;;;;13.37;11.33;;;6.80;99.90;;;;;;5023785;28;20447;-55
2024/01/27 10:28:35;;;;;;;11.48;10.50;;;6.80;99.90;;;;;;5024785;28;20245;-55
2024/01/27 10:31:11;;;;;;;11.50;10.60;;;6.70;99.90;;;;;;5025503;28;20922;-56
2024/01/27 10:33:37;;;;;;;11.60;10.80;;;6.80;99.90;;;;;;5025898;28;20264;-57
2024/01/27 10:36:03;;;;;;;11.43;10.33;;;6.70;99.90;;;;;;5015711;28;20466;-57
2024/01/27 10:38:36;;;;;;;11.97;11.07;;;6.70;99.90;;;;;;5025204;28;20803;-50
2024/01/27 10:41:04;;;;;;;11.20;10.40;;;6.70;99.90;;;;;;5023311;28;20746;-52
2024/01/27 10:43:31;;;;;;;11.00;10.00;;;6.80;1.00;;;;;;5022332;28;20500;-52
2024/01/27 10:45:58;;;;;;;10.77;10.17;;;6.90;1.00;;;;;;5027424;28;20787;-55
2024/01/27 10:48:26;;;;;;;11.13;10.27;;;7.00;99.90;;;;;;5025132;28;20503;-56
2024/01/27 10:50:51;;;;;;;12.00;11.07;;;7.10;99.90;;;;;;5024671;28;20554;-57
2024/01/27 10:53:24;;;;;;;12.00;11.30;;;7.10;99.90;;;;;;5025093;28;20548;-54
2024/01/27 10:55:53;;;;;;;12.27;11.20;;;7.20;99.90;;;;;;5024132;28;20198;-56
2024/01/27 10:58:20;;;;;;;12.40;11.20;;;7.20;99.90;;;;;;5027847;28;20424;-52
2024/01/27 11:00:50;;;;;;;12.67;11.40;;;7.20;99.90;;;;;;5023040;28;20471;-55
2024/01/27 11:03:18;;;;;;;11.67;10.93;;;7.20;99.90;;;;;;5022408;28;20487;-56
2024/01/27 11:05:46;;;;;;;13.10;11.80;;;7.10;99.90;;;;;;5025466;28;20470;-57
2024/01/27 11:08:13;;;;;;;15.80;11.50;;;7.10;99.90;;;;;;5024753;28;20428;-53
2024/01/27 11:10:39;;;;;;;12.10;10.90;;;7.10;99.90;;;;;;5035394;28;20428;-55
2024/01/27 11:13:06;;;;;;;13.80;12.60;;;7.10;99.90;;;;;;5025786;28;20425;-55
2024/01/27 11:15:32;;;;;;;12.57;11.67;;;7.20;99.90;;;;;;5024959;28;20460;-56
2024/01/27 11:17:59;;;;;;;12.20;11.20;;;7.30;99.90;;;;;;5033782;28;20415;-53
2024/01/27 11:20:25;;;;;;;11.90;11.00;;;7.40;99.90;;;;;;5019624;28;20997;-54
2024/01/27 11:22:52;;;;;;;11.83;10.93;;;7.40;99.90;;;;;;5019946;28;20433;-53
2024/01/27 11:25:18;;;;;;;12.00;11.07;;;7.50;99.90;;;;;;5018247;28;20840;-57
2024/01/27 11:27:46;;;;;;;13.30;12.10;;;7.60;99.90;;;;;;5019327;28;20445;-53
2024/01/27 11:30:28;;;;;;;11.97;10.97;;;7.80;99.90;;;;;;5019711;28;20421;-57
2024/01/27 11:32:57;;;;;;;12.43;11.33;;;8.00;99.90;;;;;;5019980;28;20800;-52
2024/01/27 11:35:26;;;;;;;13.30;12.00;;;8.10;99.90;;;;;;5018662;28;20465;-56
2024/01/27 11:37:52;;;;;;;12.53;11.50;;;8.60;99.90;;;;;;5019681;28;20424;-57
2024/01/27 11:40:18;;;;;;;11.67;10.67;;;9.30;99.10;;;;;;5017616;28;20532;-56
2024/01/27 11:42:57;;;;;;;12.37;11.40;;;9.90;1.00;;;;;;5019611;28;20500;-56
2024/01/27 11:45:23;;;;;;;12.30;11.30;;;10.10;1.00;;;;;;5019067;28;20758;-39
2024/01/27 11:47:49;;;;;;;12.53;11.47;;;10.30;1.00;;;;;;5019764;28;20467;-39
2024/01/27 11:50:17;;;;;;;11.63;10.90;;;10.60;1.00;;;;;;5018479;28;20595;-41
2024/01/27 11:52:43;;;;;;;12.03;11.23;;;11.10;1.00;;;;;;5019820;28;20441;-41
2024/01/27 11:55:08;;;;;;;13.10;11.57;;;11.60;1.00;;;;;;5019992;28;20523;-42
2024/01/27 11:57:34;;;;;;;11.60;10.77;;;12.10;1.00;;;;;;5018970;28;20179;-40
2024/01/27 12:00:00;;;;;;;11.97;11.07;;;12.60;1.00;;;;;;5018626;28;20492;-41
2024/01/27 12:02:25;;;;;;;13.00;11.80;;;13.20;1.00;;;;;;5017860;28;20313;-41
2024/01/27 12:04:51;;;;;;;12.80;11.87;;;13.50;1.00;;;;;;5013836;28;21046;-42
2024/01/27 12:07:20;;;;;;;11.17;10.40;;;13.70;1.00;;;;;;5014697;28;20253;-44
2024/01/27 12:09:48;;;;;;;12.43;11.30;;;14.20;1.00;;;;;;4997566;28;20433;-43
2024/01/27 12:12:16;;;;;;;13.03;12.00;;;14.50;99.90;;;;;;5016450;28;20515;-43
2024/01/27 12:14:46;;;;;;;11.57;10.90;;;14.60;99.90;;;;;;5012032;28;20465;-40
2024/01/27 12:17:12;;;;;;;12.57;11.57;;;14.80;99.90;;;;;;5016858;28;21106;-42
2024/01/27 12:19:38;;;;;;;11.93;10.87;;;14.90;99.90;;;;;;5015434;28;20885;-55
2024/01/27 12:22:18;;;;;;;12.60;11.67;;;14.80;99.90;;;;;;5018572;28;20429;-56
2024/01/27 12:24:43;;;;;;;12.40;11.40;;;14.50;99.90;;;;;;5017141;28;20513;-55
2024/01/27 12:27:09;;;;;;;12.53;11.33;;;14.00;99.90;;;;;;5017662;28;20435;-49
2024/01/27 12:29:34;;;;;;;12.10;11.23;;;13.80;99.90;;;;;;5020088;28;20560;-51
2024/01/27 12:32:00;;;;;;;11.13;10.30;;;13.70;99.90;;;;;;5021311;28;20225;-50
2024/01/27 12:34:26;;;;;;;12.27;11.37;;;13.50;99.90;;;;;;5020977;28;20557;-53
2024/01/27 12:36:52;;;;;;;12.70;11.60;;;13.80;99.90;;;;;;5021454;28;20429;-55
2024/01/27 12:39:18;;;;;;;15.17;11.03;;;13.90;99.90;;;;;;5020761;28;21023;-51